sensor_id;sensor_type;location;lat;lon;timestamp;P1;durP1;ratioP1;P2;durP2;ratioP2
24223;SDS011;12359;49.716;9.212;2023-02-28T00:00:20;0.40;;;0.40;;
24223;SDS011;12359;49.716;9.212;2023-02-28T00:02:46;0.30;;;0.30;;
24223;SDS011;12359;49.716;9.212;2023-02-28T00:05:14;0.30;;;0.30;;
24223;SDS011;12359;49.716;9.212;2023-02-28T00:07:42;0.30;;;0.30;;
24223;SDS011;12359;49.716;9.212;2023-02-28T00:10:10;0.40;;;0.40;;
24223;SDS011;12359;49.716;9.212;2023-02-28T00:12:37;0.30;;;0.30;;
24223;SDS011;12359;49.716;9.212;2023-02-28T00:15:08;0.30;;;0.30;;
24223;SDS011;12359;49.716;9.212;2023-02-28T00:17:37;0.40;;;0.40;;
24223;SDS011;12359;49.716;9.212;2023-02-28T00:20:03;0.30;;;0.30;;
24223;SDS011;12359;49.716;9.212;2023-02-28T00:22:33;0.30;;;0.30;;
24223;SDS011;12359;49.716;9.212;2023-02-28T00:24:59;0.30;;;0.30;;
24223;SDS011;12359;49.716;9.212;2023-02-28T00:27:25;0.30;;;0.30;;
24223;SDS011;12359;49.716;9.212;2023-02-28T00:29:50;0.30;;;0.30;;
24223;SDS011;12359;49.716;9.212;2023-02-28T00:32:16;0.30;;;0.30;;
24223;SDS011;12359;49.716;9.212;2023-02-28T00:34:43;0.30;;;0.30;;
24223;SDS011;12359;49.716;9.212;2023-02-28T00:37:09;0.40;;;0.40;;
24223;SDS011;12359;49.716;9.212;2023-02-28T00:39:37;0.30;;;0.30;;
24223;SDS011;12359;49.716;9.212;2023-02-28T00:42:03;0.40;;;0.40;;
24223;SDS011;12359;49.716;9.212;2023-02-28T00:44:30;0.40;;;0.40;;
24223;SDS011;12359;49.716;9.212;2023-02-28T00:46:56;0.30;;;0.30;;
24223;SDS011;12359;49.716;9.212;2023-02-28T00:49:23;0.30;;;0.30;;
24223;SDS011;12359;49.716;9.212;2023-02-28T00:51:49;0.30;;;0.30;;
24223;SDS011;12359;49.716;9.212;2023-02-28T00:54:15;0.30;;;0.30;;
24223;SDS011;12359;49.716;9.212;2023-02-28T00:56:41;0.30;;;0.30;;
24223;SDS011;12359;49.716;9.212;2023-02-28T00:59:06;0.32;;;0.32;;
24223;SDS011;12359;49.716;9.212;2023-02-28T01:01:32;0.30;;;0.30;;
24223;SDS011;12359;49.716;9.212;2023-02-28T01:03:58;0.30;;;0.30;;
24223;SDS011;12359;49.716;9.212;2023-02-28T01:06:26;0.30;;;0.30;;
24223;SDS011;12359;49.716;9.212;2023-02-28T01:08:52;0.40;;;0.40;;
24223;SDS011;12359;49.716;9.212;2023-02-28T01:11:18;0.30;;;0.30;;
24223;SDS011;12359;49.716;9.212;2023-02-28T01:13:43;0.30;;;0.30;;
24223;SDS011;12359;49.716;9.212;2023-02-28T01:16:10;0.40;;;0.40;;
24223;SDS011;12359;49.716;9.212;2023-02-28T01:18:37;0.30;;;0.30;;
24223;SDS011;12359;49.716;9.212;2023-02-28T01:21:06;0.40;;;0.40;;
24223;SDS011;12359;49.716;9.212;2023-02-28T01:23:37;0.30;;;0.30;;
24223;SDS011;12359;49.716;9.212;2023-02-28T01:26:07;0.30;;;0.30;;
24223;SDS011;12359;49.716;9.212;2023-02-28T01:28:34;0.30;;;0.30;;
24223;SDS011;12359;49.716;9.212;2023-02-28T01:31:00;0.30;;;0.30;;
24223;SDS011;12359;49.716;9.212;2023-02-28T01:33:26;0.30;;;0.30;;
24223;SDS011;12359;49.716;9.212;2023-02-28T01:36:03;0.40;;;0.40;;
24223;SDS011;12359;49.716;9.212;2023-02-28T01:38:30;0.30;;;0.30;;
24223;SDS011;12359;49.716;9.212;2023-02-28T01:40:57;0.30;;;0.30;;
24223;SDS011;12359;49.716;9.212;2023-02-28T01:43:27;0.30;;;0.30;;
24223;SDS011;12359;49.716;9.212;2023-02-28T01:48:34;0.30;;;0.30;;
24223;SDS011;12359;49.716;9.212;2023-02-28T01:51:05;0.40;;;0.40;;
24223;SDS011;12359;49.716;9.212;2023-02-28T01:53:37;0.30;;;0.30;;
24223;SDS011;12359;49.716;9.212;2023-02-28T01:56:09;0.30;;;0.30;;
24223;SDS011;12359;49.716;9.212;2023-02-28T01:58:46;0.40;;;0.40;;
24223;SDS011;12359;49.716;9.212;2023-02-28T02:01:13;0.40;;;0.40;;
24223;SDS011;12359;49.716;9.212;2023-02-28T02:03:49;0.30;;;0.30;;
24223;SDS011;12359;49.716;9.212;2023-02-28T02:06:20;0.30;;;0.30;;
24223;SDS011;12359;49.716;9.212;2023-02-28T02:08:47;0.30;;;0.30;;
24223;SDS011;12359;49.716;9.212;2023-02-28T02:11:13;0.40;;;0.40;;
24223;SDS011;12359;49.716;9.212;2023-02-28T02:24:11;0.40;;;0.40;;
24223;SDS011;12359;49.716;9.212;2023-02-28T02:27:13;0.30;;;0.30;;
24223;SDS011;12359;49.716;9.212;2023-02-28T02:29:55;0.40;;;0.40;;
24223;SDS011;12359;49.716;9.212;2023-02-28T02:35:31;0.30;;;0.30;;
24223;SDS011;12359;49.716;9.212;2023-02-28T02:38:05;0.40;;;0.40;;
24223;SDS011;12359;49.716;9.212;2023-02-28T02:43:39;0.30;;;0.30;;
24223;SDS011;12359;49.716;9.212;2023-02-28T02:46:15;0.40;;;0.40;;
24223;SDS011;12359;49.716;9.212;2023-02-28T02:48:46;0.30;;;0.30;;
24223;SDS011;12359;49.716;9.212;2023-02-28T02:51:17;0.30;;;0.30;;
24223;SDS011;12359;49.716;9.212;2023-02-28T02:56:14;0.30;;;0.30;;
24223;SDS011;12359;49.716;9.212;2023-02-28T02:58:46;0.30;;;0.30;;
24223;SDS011;12359;49.716;9.212;2023-02-28T03:01:16;0.32;;;0.32;;
24223;SDS011;12359;49.716;9.212;2023-02-28T03:03:59;0.40;;;0.40;;
24223;SDS011;12359;49.716;9.212;2023-02-28T03:06:31;0.40;;;0.40;;
24223;SDS011;12359;49.716;9.212;2023-02-28T03:08:57;0.32;;;0.32;;
24223;SDS011;12359;49.716;9.212;2023-02-28T03:11:24;0.40;;;0.40;;
24223;SDS011;12359;49.716;9.212;2023-02-28T03:19:30;0.30;;;0.30;;
24223;SDS011;12359;49.716;9.212;2023-02-28T03:32:51;0.30;;;0.30;;
24223;SDS011;12359;49.716;9.212;2023-02-28T03:35:41;0.40;;;0.40;;
24223;SDS011;12359;49.716;9.212;2023-02-28T03:38:16;0.30;;;0.30;;
24223;SDS011;12359;49.716;9.212;2023-02-28T03:40:48;0.40;;;0.40;;
24223;SDS011;12359;49.716;9.212;2023-02-28T03:43:22;0.30;;;0.30;;
24223;SDS011;12359;49.716;9.212;2023-02-28T03:45:52;0.40;;;0.40;;
24223;SDS011;12359;49.716;9.212;2023-02-28T03:48:28;0.30;;;0.30;;
24223;SDS011;12359;49.716;9.212;2023-02-28T03:51:17;0.30;;;0.30;;
24223;SDS011;12359;49.716;9.212;2023-02-28T03:53:53;0.40;;;0.40;;
24223;SDS011;12359;49.716;9.212;2023-02-28T03:56:34;0.30;;;0.30;;
24223;SDS011;12359;49.716;9.212;2023-02-28T04:02:07;0.30;;;0.30;;
24223;SDS011;12359;49.716;9.212;2023-02-28T04:04:33;0.30;;;0.30;;
24223;SDS011;12359;49.716;9.212;2023-02-28T04:07:06;0.40;;;0.40;;
24223;SDS011;12359;49.716;9.212;2023-02-28T04:09:33;0.40;;;0.40;;
24223;SDS011;12359;49.716;9.212;2023-02-28T04:11:59;0.38;;;0.38;;
24223;SDS011;12359;49.716;9.212;2023-02-28T04:14:25;0.30;;;0.30;;
24223;SDS011;12359;49.716;9.212;2023-02-28T04:16:50;0.30;;;0.30;;
24223;SDS011;12359;49.716;9.212;2023-02-28T04:19:20;0.40;;;0.40;;
24223;SDS011;12359;49.716;9.212;2023-02-28T04:21:47;0.30;;;0.30;;
24223;SDS011;12359;49.716;9.212;2023-02-28T04:24:15;0.40;;;0.40;;
24223;SDS011;12359;49.716;9.212;2023-02-28T04:26:50;0.30;;;0.30;;
24223;SDS011;12359;49.716;9.212;2023-02-28T04:29:19;0.30;;;0.30;;
24223;SDS011;12359;49.716;9.212;2023-02-28T04:31:46;0.30;;;0.30;;
24223;SDS011;12359;49.716;9.212;2023-02-28T04:34:12;0.30;;;0.30;;
24223;SDS011;12359;49.716;9.212;2023-02-28T04:36:38;0.40;;;0.40;;
24223;SDS011;12359;49.716;9.212;2023-02-28T04:39:03;0.30;;;0.30;;
24223;SDS011;12359;49.716;9.212;2023-02-28T04:41:29;0.38;;;0.38;;
24223;SDS011;12359;49.716;9.212;2023-02-28T04:43:55;0.30;;;0.30;;
24223;SDS011;12359;49.716;9.212;2023-02-28T04:46:21;0.30;;;0.30;;
24223;SDS011;12359;49.716;9.212;2023-02-28T04:48:48;0.40;;;0.40;;
24223;SDS011;12359;49.716;9.212;2023-02-28T04:51:14;0.38;;;0.38;;
24223;SDS011;12359;49.716;9.212;2023-02-28T04:53:41;0.40;;;0.40;;
24223;SDS011;12359;49.716;9.212;2023-02-28T04:56:08;0.30;;;0.30;;
24223;SDS011;12359;49.716;9.212;2023-02-28T04:58:37;0.30;;;0.30;;
24223;SDS011;12359;49.716;9.212;2023-02-28T05:01:03;0.40;;;0.40;;
24223;SDS011;12359;49.716;9.212;2023-02-28T05:03:38;0.30;;;0.30;;
24223;SDS011;12359;49.716;9.212;2023-02-28T05:06:06;0.30;;;0.30;;
24223;SDS011;12359;49.716;9.212;2023-02-28T05:08:32;0.40;;;0.40;;
24223;SDS011;12359;49.716;9.212;2023-02-28T05:10:58;0.40;;;0.40;;
24223;SDS011;12359;49.716;9.212;2023-02-28T05:13:25;0.40;;;0.40;;
24223;SDS011;12359;49.716;9.212;2023-02-28T05:15:52;0.30;;;0.30;;
24223;SDS011;12359;49.716;9.212;2023-02-28T05:18:17;0.30;;;0.30;;
24223;SDS011;12359;49.716;9.212;2023-02-28T05:20:43;0.30;;;0.30;;
24223;SDS011;12359;49.716;9.212;2023-02-28T05:23:10;0.30;;;0.30;;
24223;SDS011;12359;49.716;9.212;2023-02-28T05:25:38;0.40;;;0.40;;
24223;SDS011;12359;49.716;9.212;2023-02-28T05:28:04;0.40;;;0.40;;
24223;SDS011;12359;49.716;9.212;2023-02-28T05:30:30;0.30;;;0.30;;
24223;SDS011;12359;49.716;9.212;2023-02-28T05:32:57;0.40;;;0.40;;
24223;SDS011;12359;49.716;9.212;2023-02-28T05:35:23;0.40;;;0.40;;
24223;SDS011;12359;49.716;9.212;2023-02-28T05:37:49;0.38;;;0.38;;
24223;SDS011;12359;49.716;9.212;2023-02-28T05:40:15;0.40;;;0.40;;
24223;SDS011;12359;49.716;9.212;2023-02-28T05:42:41;0.30;;;0.30;;
24223;SDS011;12359;49.716;9.212;2023-02-28T05:45:07;0.40;;;0.40;;
24223;SDS011;12359;49.716;9.212;2023-02-28T05:47:34;0.30;;;0.30;;
24223;SDS011;12359;49.716;9.212;2023-02-28T05:50:00;0.40;;;0.40;;
24223;SDS011;12359;49.716;9.212;2023-02-28T05:52:26;0.40;;;0.40;;
24223;SDS011;12359;49.716;9.212;2023-02-28T05:54:52;0.40;;;0.40;;
24223;SDS011;12359;49.716;9.212;2023-02-28T05:57:18;0.40;;;0.40;;
24223;SDS011;12359;49.716;9.212;2023-02-28T05:59:44;0.40;;;0.40;;
24223;SDS011;12359;49.716;9.212;2023-02-28T06:02:13;0.40;;;0.40;;
24223;SDS011;12359;49.716;9.212;2023-02-28T06:04:39;0.40;;;0.40;;
24223;SDS011;12359;49.716;9.212;2023-02-28T06:07:06;0.40;;;0.40;;
24223;SDS011;12359;49.716;9.212;2023-02-28T06:09:33;0.28;;;0.28;;
24223;SDS011;12359;49.716;9.212;2023-02-28T06:11:59;0.40;;;0.40;;
24223;SDS011;12359;49.716;9.212;2023-02-28T06:14:27;0.30;;;0.30;;
24223;SDS011;12359;49.716;9.212;2023-02-28T06:16:53;0.30;;;0.30;;
24223;SDS011;12359;49.716;9.212;2023-02-28T06:19:19;0.40;;;0.40;;
24223;SDS011;12359;49.716;9.212;2023-02-28T06:21:44;0.30;;;0.30;;
24223;SDS011;12359;49.716;9.212;2023-02-28T06:24:13;0.32;;;0.32;;
24223;SDS011;12359;49.716;9.212;2023-02-28T06:26:39;0.40;;;0.40;;
24223;SDS011;12359;49.716;9.212;2023-02-28T06:29:04;0.40;;;0.40;;
24223;SDS011;12359;49.716;9.212;2023-02-28T06:31:33;0.30;;;0.30;;
24223;SDS011;12359;49.716;9.212;2023-02-28T06:33:58;0.30;;;0.30;;
24223;SDS011;12359;49.716;9.212;2023-02-28T06:36:24;0.30;;;0.30;;
24223;SDS011;12359;49.716;9.212;2023-02-28T06:38:50;0.30;;;0.30;;
24223;SDS011;12359;49.716;9.212;2023-02-28T06:41:19;0.20;;;0.20;;
24223;SDS011;12359;49.716;9.212;2023-02-28T06:43:46;0.38;;;0.38;;
24223;SDS011;12359;49.716;9.212;2023-02-28T06:46:13;0.30;;;0.30;;
24223;SDS011;12359;49.716;9.212;2023-02-28T06:48:39;0.40;;;0.40;;
24223;SDS011;12359;49.716;9.212;2023-02-28T06:51:07;0.30;;;0.30;;
24223;SDS011;12359;49.716;9.212;2023-02-28T06:53:38;0.30;;;0.30;;
24223;SDS011;12359;49.716;9.212;2023-02-28T06:56:06;0.40;;;0.40;;
24223;SDS011;12359;49.716;9.212;2023-02-28T06:58:34;0.30;;;0.30;;
24223;SDS011;12359;49.716;9.212;2023-02-28T07:01:00;0.30;;;0.30;;
24223;SDS011;12359;49.716;9.212;2023-02-28T07:03:26;0.30;;;0.30;;
24223;SDS011;12359;49.716;9.212;2023-02-28T07:05:51;0.20;;;0.20;;
24223;SDS011;12359;49.716;9.212;2023-02-28T07:08:17;0.30;;;0.30;;
24223;SDS011;12359;49.716;9.212;2023-02-28T07:10:43;0.20;;;0.20;;
24223;SDS011;12359;49.716;9.212;2023-02-28T07:13:09;0.20;;;0.20;;
24223;SDS011;12359;49.716;9.212;2023-02-28T07:15:36;0.20;;;0.20;;
24223;SDS011;12359;49.716;9.212;2023-02-28T07:18:02;0.20;;;0.20;;
24223;SDS011;12359;49.716;9.212;2023-02-28T07:20:28;0.20;;;0.20;;
24223;SDS011;12359;49.716;9.212;2023-02-28T07:22:54;0.20;;;0.20;;
24223;SDS011;12359;49.716;9.212;2023-02-28T07:25:27;0.20;;;0.20;;
24223;SDS011;12359;49.716;9.212;2023-02-28T07:27:54;0.20;;;0.20;;
24223;SDS011;12359;49.716;9.212;2023-02-28T07:30:21;0.10;;;0.10;;
24223;SDS011;12359;49.716;9.212;2023-02-28T07:32:46;0.20;;;0.20;;
24223;SDS011;12359;49.716;9.212;2023-02-28T07:35:13;0.10;;;0.10;;
24223;SDS011;12359;49.716;9.212;2023-02-28T07:37:40;0.10;;;0.10;;
24223;SDS011;12359;49.716;9.212;2023-02-28T07:40:08;0.10;;;0.10;;
24223;SDS011;12359;49.716;9.212;2023-02-28T07:42:39;0.10;;;0.10;;
24223;SDS011;12359;49.716;9.212;2023-02-28T07:45:05;0.10;;;0.10;;
24223;SDS011;12359;49.716;9.212;2023-02-28T07:47:33;0.10;;;0.10;;
24223;SDS011;12359;49.716;9.212;2023-02-28T07:49:58;0.10;;;0.10;;
24223;SDS011;12359;49.716;9.212;2023-02-28T07:52:24;0.10;;;0.10;;
24223;SDS011;12359;49.716;9.212;2023-02-28T07:54:50;0.10;;;0.10;;
24223;SDS011;12359;49.716;9.212;2023-02-28T07:57:16;0.10;;;0.10;;
24223;SDS011;12359;49.716;9.212;2023-02-28T07:59:42;0.10;;;0.10;;
24223;SDS011;12359;49.716;9.212;2023-02-28T08:02:13;0.10;;;0.10;;
24223;SDS011;12359;49.716;9.212;2023-02-28T08:04:40;0.10;;;0.10;;
24223;SDS011;12359;49.716;9.212;2023-02-28T08:07:06;0.10;;;0.10;;
24223;SDS011;12359;49.716;9.212;2023-02-28T08:09:33;0.10;;;0.10;;
24223;SDS011;12359;49.716;9.212;2023-02-28T08:11:59;0.10;;;0.10;;
24223;SDS011;12359;49.716;9.212;2023-02-28T08:14:25;0.10;;;0.10;;
24223;SDS011;12359;49.716;9.212;2023-02-28T08:16:51;0.10;;;0.10;;
24223;SDS011;12359;49.716;9.212;2023-02-28T08:19:16;0.10;;;0.10;;
24223;SDS011;12359;49.716;9.212;2023-02-28T08:21:42;0.10;;;0.10;;
24223;SDS011;12359;49.716;9.212;2023-02-28T08:24:08;0.10;;;0.10;;
24223;SDS011;12359;49.716;9.212;2023-02-28T08:26:33;0.10;;;0.10;;
24223;SDS011;12359;49.716;9.212;2023-02-28T08:28:59;0.10;;;0.10;;
24223;SDS011;12359;49.716;9.212;2023-02-28T08:31:27;0.10;;;0.10;;
24223;SDS011;12359;49.716;9.212;2023-02-28T08:33:53;0.20;;;0.20;;
24223;SDS011;12359;49.716;9.212;2023-02-28T08:36:21;0.10;;;0.10;;
24223;SDS011;12359;49.716;9.212;2023-02-28T08:38:48;0.10;;;0.10;;
24223;SDS011;12359;49.716;9.212;2023-02-28T08:41:14;0.10;;;0.10;;
24223;SDS011;12359;49.716;9.212;2023-02-28T08:43:39;0.20;;;0.20;;
24223;SDS011;12359;49.716;9.212;2023-02-28T08:46:06;0.10;;;0.10;;
24223;SDS011;12359;49.716;9.212;2023-02-28T08:48:33;0.20;;;0.20;;
24223;SDS011;12359;49.716;9.212;2023-02-28T08:51:00;0.20;;;0.20;;
24223;SDS011;12359;49.716;9.212;2023-02-28T08:53:27;0.20;;;0.20;;
24223;SDS011;12359;49.716;9.212;2023-02-28T08:56:00;0.20;;;0.20;;
24223;SDS011;12359;49.716;9.212;2023-02-28T08:58:31;0.15;;;0.15;;
24223;SDS011;12359;49.716;9.212;2023-02-28T09:00:57;0.10;;;0.10;;
24223;SDS011;12359;49.716;9.212;2023-02-28T09:03:23;0.20;;;0.20;;
24223;SDS011;12359;49.716;9.212;2023-02-28T09:06:01;0.20;;;0.20;;
24223;SDS011;12359;49.716;9.212;2023-02-28T09:08:27;0.20;;;0.20;;
24223;SDS011;12359;49.716;9.212;2023-02-28T09:10:55;0.20;;;0.20;;
24223;SDS011;12359;49.716;9.212;2023-02-28T09:13:23;0.17;;;0.17;;
24223;SDS011;12359;49.716;9.212;2023-02-28T09:15:49;0.20;;;0.20;;
24223;SDS011;12359;49.716;9.212;2023-02-28T09:18:16;0.20;;;0.20;;
24223;SDS011;12359;49.716;9.212;2023-02-28T09:20:42;0.20;;;0.20;;
24223;SDS011;12359;49.716;9.212;2023-02-28T09:23:09;0.20;;;0.20;;
24223;SDS011;12359;49.716;9.212;2023-02-28T09:25:35;0.20;;;0.20;;
24223;SDS011;12359;49.716;9.212;2023-02-28T09:28:01;0.20;;;0.20;;
24223;SDS011;12359;49.716;9.212;2023-02-28T09:30:27;0.20;;;0.20;;
24223;SDS011;12359;49.716;9.212;2023-02-28T09:32:53;0.10;;;0.10;;
24223;SDS011;12359;49.716;9.212;2023-02-28T09:35:20;0.20;;;0.20;;
24223;SDS011;12359;49.716;9.212;2023-02-28T09:37:49;0.20;;;0.20;;
24223;SDS011;12359;49.716;9.212;2023-02-28T09:40:21;0.20;;;0.20;;
24223;SDS011;12359;49.716;9.212;2023-02-28T09:42:49;0.20;;;0.20;;
24223;SDS011;12359;49.716;9.212;2023-02-28T09:47:49;0.20;;;0.20;;
24223;SDS011;12359;49.716;9.212;2023-02-28T09:52:52;0.20;;;0.20;;
24223;SDS011;12359;49.716;9.212;2023-02-28T09:55:28;0.20;;;0.20;;
24223;SDS011;12359;49.716;9.212;2023-02-28T09:57:58;0.20;;;0.20;;
24223;SDS011;12359;49.716;9.212;2023-02-28T10:00:33;0.20;;;0.20;;
24223;SDS011;12359;49.716;9.212;2023-02-28T10:06:08;0.20;;;0.20;;
24223;SDS011;12359;49.716;9.212;2023-02-28T10:09:03;0.20;;;0.20;;
24223;SDS011;12359;49.716;9.212;2023-02-28T10:11:38;0.20;;;0.20;;
24223;SDS011;12359;49.716;9.212;2023-02-28T10:16:47;0.30;;;0.30;;
24223;SDS011;12359;49.716;9.212;2023-02-28T10:21:54;0.25;;;0.25;;
24223;SDS011;12359;49.716;9.212;2023-02-28T10:27:16;0.25;;;0.25;;
24223;SDS011;12359;49.716;9.212;2023-02-28T10:29:51;0.30;;;0.30;;
24223;SDS011;12359;49.716;9.212;2023-02-28T10:32:29;0.30;;;0.30;;
24223;SDS011;12359;49.716;9.212;2023-02-28T10:37:26;0.30;;;0.30;;
24223;SDS011;12359;49.716;9.212;2023-02-28T10:39:53;0.38;;;0.38;;
24223;SDS011;12359;49.716;9.212;2023-02-28T10:42:20;0.30;;;0.30;;
24223;SDS011;12359;49.716;9.212;2023-02-28T10:45:04;0.30;;;0.30;;
24223;SDS011;12359;49.716;9.212;2023-02-28T10:47:34;0.30;;;0.30;;
24223;SDS011;12359;49.716;9.212;2023-02-28T10:50:23;0.25;;;0.25;;
24223;SDS011;12359;49.716;9.212;2023-02-28T10:53:45;0.28;;;0.28;;
24223;SDS011;12359;49.716;9.212;2023-02-28T10:56:34;0.30;;;0.30;;
24223;SDS011;12359;49.716;9.212;2023-02-28T10:58:54;0.20;;;0.20;;
24223;SDS011;12359;49.716;9.212;2023-02-28T11:03:55;0.30;;;0.30;;
24223;SDS011;12359;49.716;9.212;2023-02-28T11:06:32;0.30;;;0.30;;
24223;SDS011;12359;49.716;9.212;2023-02-28T11:09:34;0.30;;;0.30;;
24223;SDS011;12359;49.716;9.212;2023-02-28T11:11:57;0.30;;;0.30;;
24223;SDS011;12359;49.716;9.212;2023-02-28T11:14:34;0.22;;;0.22;;
24223;SDS011;12359;49.716;9.212;2023-02-28T11:17:19;0.30;;;0.30;;
24223;SDS011;12359;49.716;9.212;2023-02-28T11:19:47;0.30;;;0.30;;
24223;SDS011;12359;49.716;9.212;2023-02-28T11:22:19;0.20;;;0.20;;
24223;SDS011;12359;49.716;9.212;2023-02-28T11:24:49;0.20;;;0.20;;
24223;SDS011;12359;49.716;9.212;2023-02-28T11:29:55;0.25;;;0.25;;
24223;SDS011;12359;49.716;9.212;2023-02-28T11:32:23;0.20;;;0.20;;
24223;SDS011;12359;49.716;9.212;2023-02-28T11:37:37;0.20;;;0.20;;
24223;SDS011;12359;49.716;9.212;2023-02-28T11:40:16;0.20;;;0.20;;
24223;SDS011;12359;49.716;9.212;2023-02-28T11:43:00;0.30;;;0.30;;
24223;SDS011;12359;49.716;9.212;2023-02-28T11:48:20;0.28;;;0.28;;
24223;SDS011;12359;49.716;9.212;2023-02-28T11:59:04;0.20;;;0.20;;
24223;SDS011;12359;49.716;9.212;2023-02-28T12:12:57;0.20;;;0.20;;
24223;SDS011;12359;49.716;9.212;2023-02-28T12:16:00;0.20;;;0.20;;
24223;SDS011;12359;49.716;9.212;2023-02-28T12:21:56;0.20;;;0.20;;
24223;SDS011;12359;49.716;9.212;2023-02-28T12:27:20;0.20;;;0.20;;
24223;SDS011;12359;49.716;9.212;2023-02-28T12:30:00;0.20;;;0.20;;
24223;SDS011;12359;49.716;9.212;2023-02-28T12:32:50;0.20;;;0.20;;
24223;SDS011;12359;49.716;9.212;2023-02-28T12:35:23;0.30;;;0.30;;
24223;SDS011;12359;49.716;9.212;2023-02-28T12:37:55;0.20;;;0.20;;
24223;SDS011;12359;49.716;9.212;2023-02-28T12:40:34;0.20;;;0.20;;
24223;SDS011;12359;49.716;9.212;2023-02-28T12:43:09;0.28;;;0.28;;
24223;SDS011;12359;49.716;9.212;2023-02-28T12:48:11;0.20;;;0.20;;
24223;SDS011;12359;49.716;9.212;2023-02-28T12:50:47;0.30;;;0.30;;
24223;SDS011;12359;49.716;9.212;2023-02-28T12:53:24;0.30;;;0.30;;
24223;SDS011;12359;49.716;9.212;2023-02-28T13:01:38;0.20;;;0.20;;
24223;SDS011;12359;49.716;9.212;2023-02-28T13:09:25;0.20;;;0.20;;
24223;SDS011;12359;49.716;9.212;2023-02-28T13:11:51;0.30;;;0.30;;
24223;SDS011;12359;49.716;9.212;2023-02-28T13:14:23;0.30;;;0.30;;
24223;SDS011;12359;49.716;9.212;2023-02-28T13:19:32;0.30;;;0.30;;
24223;SDS011;12359;49.716;9.212;2023-02-28T13:22:00;0.30;;;0.30;;
24223;SDS011;12359;49.716;9.212;2023-02-28T13:24:44;0.30;;;0.30;;
24223;SDS011;12359;49.716;9.212;2023-02-28T13:29:42;0.30;;;0.30;;
24223;SDS011;12359;49.716;9.212;2023-02-28T13:34:35;0.28;;;0.28;;
24223;SDS011;12359;49.716;9.212;2023-02-28T13:37:48;0.30;;;0.30;;
24223;SDS011;12359;49.716;9.212;2023-02-28T13:42:52;0.30;;;0.30;;
24223;SDS011;12359;49.716;9.212;2023-02-28T13:48:01;0.30;;;0.30;;
24223;SDS011;12359;49.716;9.212;2023-02-28T14:03:37;0.30;;;0.30;;
24223;SDS011;12359;49.716;9.212;2023-02-28T14:09:03;0.30;;;0.30;;
24223;SDS011;12359;49.716;9.212;2023-02-28T14:11:48;0.30;;;0.30;;
24223;SDS011;12359;49.716;9.212;2023-02-28T14:17:02;0.30;;;0.30;;
24223;SDS011;12359;49.716;9.212;2023-02-28T14:19:30;0.30;;;0.30;;
24223;SDS011;12359;49.716;9.212;2023-02-28T14:25:30;0.30;;;0.30;;
24223;SDS011;12359;49.716;9.212;2023-02-28T14:41:17;0.30;;;0.30;;
24223;SDS011;12359;49.716;9.212;2023-02-28T14:43:53;0.30;;;0.30;;
24223;SDS011;12359;49.716;9.212;2023-02-28T14:46:22;0.30;;;0.30;;
24223;SDS011;12359;49.716;9.212;2023-02-28T14:48:51;0.30;;;0.30;;
24223;SDS011;12359;49.716;9.212;2023-02-28T14:51:18;0.30;;;0.30;;
24223;SDS011;12359;49.716;9.212;2023-02-28T14:53:47;0.20;;;0.20;;
24223;SDS011;12359;49.716;9.212;2023-02-28T14:56:20;0.20;;;0.20;;
24223;SDS011;12359;49.716;9.212;2023-02-28T14:58:55;0.30;;;0.30;;
24223;SDS011;12359;49.716;9.212;2023-02-28T15:01:22;0.28;;;0.28;;
24223;SDS011;12359;49.716;9.212;2023-02-28T15:03:56;0.25;;;0.25;;
24223;SDS011;12359;49.716;9.212;2023-02-28T15:06:29;0.28;;;0.28;;
24223;SDS011;12359;49.716;9.212;2023-02-28T15:09:16;0.20;;;0.20;;
24223;SDS011;12359;49.716;9.212;2023-02-28T15:11:47;0.28;;;0.28;;
24223;SDS011;12359;49.716;9.212;2023-02-28T15:14:19;0.22;;;0.22;;
24223;SDS011;12359;49.716;9.212;2023-02-28T15:16:47;0.20;;;0.20;;
24223;SDS011;12359;49.716;9.212;2023-02-28T15:19:24;0.30;;;0.30;;
24223;SDS011;12359;49.716;9.212;2023-02-28T15:22:06;0.30;;;0.30;;
24223;SDS011;12359;49.716;9.212;2023-02-28T15:24:39;0.30;;;0.30;;
24223;SDS011;12359;49.716;9.212;2023-02-28T15:27:10;0.30;;;0.30;;
24223;SDS011;12359;49.716;9.212;2023-02-28T15:29:47;0.30;;;0.30;;
24223;SDS011;12359;49.716;9.212;2023-02-28T15:32:29;0.22;;;0.22;;
24223;SDS011;12359;49.716;9.212;2023-02-28T15:34:57;0.30;;;0.30;;
24223;SDS011;12359;49.716;9.212;2023-02-28T15:40:05;0.22;;;0.22;;
24223;SDS011;12359;49.716;9.212;2023-02-28T15:45:51;0.30;;;0.30;;
24223;SDS011;12359;49.716;9.212;2023-02-28T15:48:35;0.30;;;0.30;;
24223;SDS011;12359;49.716;9.212;2023-02-28T15:51:08;0.30;;;0.30;;
24223;SDS011;12359;49.716;9.212;2023-02-28T15:53:51;0.30;;;0.30;;
24223;SDS011;12359;49.716;9.212;2023-02-28T15:56:25;0.30;;;0.30;;
24223;SDS011;12359;49.716;9.212;2023-02-28T15:59:00;0.30;;;0.30;;
24223;SDS011;12359;49.716;9.212;2023-02-28T16:01:34;0.30;;;0.30;;
24223;SDS011;12359;49.716;9.212;2023-02-28T16:04:05;0.30;;;0.30;;
24223;SDS011;12359;49.716;9.212;2023-02-28T16:09:10;0.30;;;0.30;;
24223;SDS011;12359;49.716;9.212;2023-02-28T16:11:40;0.30;;;0.30;;
24223;SDS011;12359;49.716;9.212;2023-02-28T16:14:12;0.30;;;0.30;;
24223;SDS011;12359;49.716;9.212;2023-02-28T16:16:48;0.30;;;0.30;;
24223;SDS011;12359;49.716;9.212;2023-02-28T16:19:15;0.30;;;0.30;;
24223;SDS011;12359;49.716;9.212;2023-02-28T16:21:41;0.30;;;0.30;;
24223;SDS011;12359;49.716;9.212;2023-02-28T16:24:07;0.30;;;0.30;;
24223;SDS011;12359;49.716;9.212;2023-02-28T16:26:33;0.28;;;0.28;;
24223;SDS011;12359;49.716;9.212;2023-02-28T16:29:00;0.30;;;0.30;;
24223;SDS011;12359;49.716;9.212;2023-02-28T16:31:27;0.30;;;0.30;;
24223;SDS011;12359;49.716;9.212;2023-02-28T16:33:53;0.30;;;0.30;;
24223;SDS011;12359;49.716;9.212;2023-02-28T16:36:22;0.30;;;0.30;;
24223;SDS011;12359;49.716;9.212;2023-02-28T16:38:50;0.30;;;0.30;;
24223;SDS011;12359;49.716;9.212;2023-02-28T16:41:19;0.30;;;0.30;;
24223;SDS011;12359;49.716;9.212;2023-02-28T16:43:47;0.30;;;0.30;;
24223;SDS011;12359;49.716;9.212;2023-02-28T16:46:15;0.30;;;0.30;;
24223;SDS011;12359;49.716;9.212;2023-02-28T16:48:42;0.30;;;0.30;;
24223;SDS011;12359;49.716;9.212;2023-02-28T16:51:11;0.30;;;0.30;;
24223;SDS011;12359;49.716;9.212;2023-02-28T16:53:38;0.30;;;0.30;;
24223;SDS011;12359;49.716;9.212;2023-02-28T16:56:03;0.30;;;0.30;;
24223;SDS011;12359;49.716;9.212;2023-02-28T16:58:31;0.30;;;0.30;;
24223;SDS011;12359;49.716;9.212;2023-02-28T17:01:01;0.20;;;0.20;;
24223;SDS011;12359;49.716;9.212;2023-02-28T17:03:27;0.30;;;0.30;;
24223;SDS011;12359;49.716;9.212;2023-02-28T17:05:54;0.30;;;0.30;;
24223;SDS011;12359;49.716;9.212;2023-02-28T17:08:19;0.30;;;0.30;;
24223;SDS011;12359;49.716;9.212;2023-02-28T17:10:45;0.25;;;0.25;;
24223;SDS011;12359;49.716;9.212;2023-02-28T17:13:11;0.30;;;0.30;;
24223;SDS011;12359;49.716;9.212;2023-02-28T17:15:37;0.30;;;0.30;;
24223;SDS011;12359;49.716;9.212;2023-02-28T17:18:04;0.30;;;0.30;;
24223;SDS011;12359;49.716;9.212;2023-02-28T17:20:30;0.30;;;0.30;;
24223;SDS011;12359;49.716;9.212;2023-02-28T17:22:56;0.30;;;0.30;;
24223;SDS011;12359;49.716;9.212;2023-02-28T17:25:22;0.30;;;0.30;;
24223;SDS011;12359;49.716;9.212;2023-02-28T17:27:49;0.30;;;0.30;;
24223;SDS011;12359;49.716;9.212;2023-02-28T17:30:23;0.20;;;0.20;;
24223;SDS011;12359;49.716;9.212;2023-02-28T17:32:52;0.30;;;0.30;;
24223;SDS011;12359;49.716;9.212;2023-02-28T17:35:18;0.30;;;0.30;;
24223;SDS011;12359;49.716;9.212;2023-02-28T17:37:44;0.30;;;0.30;;
24223;SDS011;12359;49.716;9.212;2023-02-28T17:40:19;0.20;;;0.20;;
24223;SDS011;12359;49.716;9.212;2023-02-28T17:42:46;0.30;;;0.30;;
24223;SDS011;12359;49.716;9.212;2023-02-28T17:45:11;0.28;;;0.28;;
24223;SDS011;12359;49.716;9.212;2023-02-28T17:47:39;0.30;;;0.30;;
24223;SDS011;12359;49.716;9.212;2023-02-28T17:50:12;0.30;;;0.30;;